.
WxDataArchive / Data Records for 2014-06-29
2014-06-28 June 2014 2014-06-30

Data Records for Sunday, 29 June 2014

Time	Temp	Chill	HIndex	Humid	Dewpt	 Wind 	HiWind	WindDir	Rain 	Barom
-----	----	-----	------	-----	-----	------	------	-------	-----	-----
00:00	75.1	75.1	75.5	82	69.2	0	1	135	0.00	30.003 
00:05	74.9	74.9	74.9	82	69.0	0	1	135	0.00	30.003 
00:10	74.9	74.9	74.9	82	69.0	0	2	135	0.00	30.003 
00:15	74.9	74.9	74.9	83	69.4	0	2	135	0.00	29.999 
00:20	74.7	74.7	74.7	83	69.2	0	2	135	0.00	29.999 
00:25	74.6	74.6	74.6	84	69.4	0	1	135	0.00	29.999 
00:30	74.4	74.4	74.4	84	69.2	0	1	135	0.00	30.003 
00:35	74.4	74.4	74.4	85	69.6	0	2	135	0.00	30.003 
00:40	74.2	74.2	74.2	85	69.4	0	2	135	0.00	30.003 
00:45	74.2	74.2	74.2	85	69.4	0	1	135	0.00	30.006 
00:50	74.2	74.2	74.2	85	69.4	0	1	135	0.00	30.006 
00:55	74.0	74.0	74.0	86	69.5	0	0	---	0.00	30.006 
01:00	73.9	73.9	73.9	86	69.4	0	1	135	0.00	30.005 
01:05	73.9	73.9	73.9	86	69.4	0	1	135	0.00	30.005 
01:10	73.9	73.9	73.9	86	69.4	0	0	---	0.00	30.005 
01:15	73.9	73.9	73.9	86	69.4	0	1	135	0.00	30.009 
01:20	73.9	73.9	73.9	86	69.4	0	0	---	0.00	30.009 
01:25	73.9	73.9	73.9	86	69.4	0	1	135	0.00	30.009 
01:30	73.9	73.9	73.9	86	69.4	0	1	135	0.00	30.010 
01:35	73.7	73.7	73.7	87	69.6	0	1	135	0.00	30.010 
01:40	73.7	73.7	73.7	87	69.6	0	1	135	0.00	30.010 
01:45	73.7	73.7	73.7	87	69.6	0	1	135	0.00	30.012 
01:50	73.7	73.7	73.7	87	69.6	0	0	---	0.00	30.012 
01:55	73.5	73.5	73.5	87	69.4	0	1	135	0.00	30.012 
02:00	73.5	73.5	73.5	87	69.4	0	0	---	0.00	30.015 
02:05	73.3	73.3	73.3	87	69.2	0	0	---	0.00	30.015 
02:10	73.3	73.3	73.3	87	69.2	0	1	135	0.00	30.015 
02:15	73.3	73.3	73.3	87	69.2	0	0	---	0.00	30.014 
02:20	73.3	73.3	73.3	87	69.2	0	1	135	0.00	30.014 
02:25	73.2	73.2	73.2	88	69.4	0	0	---	0.00	30.014 
02:30	73.2	73.2	73.2	88	69.4	0	0	---	0.00	30.014 
02:35	73.0	73.0	73.0	88	69.2	0	1	135	0.00	30.014 
02:40	73.0	73.0	73.0	88	69.2	0	1	135	0.00	30.014 
02:45	72.8	72.8	72.8	88	69.0	0	2	135	0.00	30.011 
02:50	72.8	72.8	72.8	88	69.0	0	1	135	0.00	30.011 
02:55	72.8	72.8	72.8	89	69.4	0	2	135	0.00	30.011 
03:00	72.7	72.7	72.7	89	69.3	0	1	135	0.00	30.009 
03:05	72.7	72.7	72.7	89	69.3	0	1	135	0.00	30.009 
03:10	72.5	72.5	72.5	89	69.1	0	1	135	0.00	30.009 
03:15	72.3	72.3	72.3	89	68.9	0	2	135	0.00	29.996 
03:20	72.1	72.1	72.1	89	68.7	0	1	135	0.00	29.996 
03:25	72.1	72.1	72.1	90	69.0	0	3	135	0.00	29.996 
03:30	72.0	72.0	72.0	90	68.9	0	2	135	0.00	29.994 
03:35	71.8	71.8	71.8	90	68.7	0	1	135	0.00	29.994 
03:40	71.8	71.8	71.8	91	69.0	0	2	135	0.00	29.994 
03:45	71.8	71.8	71.8	91	69.0	0	2	135	0.00	29.993 
03:50	71.6	71.6	71.6	91	68.8	0	1	135	0.00	29.993 
03:55	71.6	71.6	71.6	91	68.8	0	2	135	0.00	29.993 
04:00	71.6	71.6	71.6	91	68.8	0	1	135	0.00	29.994 
04:05	71.5	71.5	71.5	91	68.7	0	1	135	0.00	29.994 
04:10	71.5	71.5	71.5	92	69.0	0	0	---	0.00	29.994 
04:15	71.5	71.5	71.5	92	69.0	0	0	---	0.00	29.993 
04:20	71.5	71.5	71.5	92	69.0	0	2	135	0.00	29.993 
04:25	71.5	71.5	71.5	92	69.0	0	3	112	0.00	29.993 
04:30	71.5	71.5	71.5	92	69.0	0	1	112	0.00	29.993 
04:35	71.5	71.5	71.5	92	69.0	0	1	112	0.00	29.993 
04:40	71.5	71.5	71.5	92	69.0	0	0	---	0.00	29.993 
04:45	71.5	71.5	71.5	92	69.0	0	0	---	0.00	29.993 
04:50	71.5	71.5	71.5	92	69.0	0	1	112	0.00	29.993 
04:55	71.5	71.5	71.5	92	69.0	0	1	112	0.00	29.993 
05:00	71.5	71.5	71.5	92	69.0	0	0	---	0.00	29.994 
05:05	71.5	71.5	71.5	92	69.0	0	1	112	0.00	29.994 
05:10	71.5	71.5	71.5	92	69.0	0	1	112	0.00	29.994 
05:15	71.5	71.5	71.5	92	69.0	0	1	112	0.00	29.991 
05:20	71.5	71.5	71.5	92	69.0	0	0	---	0.00	29.991 
05:25	71.5	71.5	71.5	92	69.0	0	1	112	0.00	29.991 
05:30	71.3	71.3	71.3	92	68.8	0	1	112	0.00	29.990 
05:35	71.3	71.3	71.3	92	68.8	0	1	112	0.00	29.990 
05:40	71.3	71.3	71.3	92	68.8	0	1	112	0.00	29.990 
05:45	71.3	71.3	71.3	92	68.8	0	1	112	0.00	29.987 
05:50	71.3	71.3	71.3	92	68.8	0	1	112	0.00	29.987 
05:55	71.3	71.3	71.3	92	68.8	0	3	112	0.00	29.987 
06:00	71.3	71.3	71.3	92	68.8	0	2	112	0.00	29.979 
06:05	71.3	71.3	71.3	92	68.8	0	3	112	0.00	29.979 
06:10	71.3	71.3	71.3	92	68.8	0	2	112	0.00	29.979 
06:15	71.3	71.3	71.3	92	68.8	0	2	112	0.00	29.979 
06:20	71.3	71.3	71.3	92	68.8	0	2	112	0.00	29.979 
06:25	71.3	71.3	71.3	92	68.8	0	1	112	0.00	29.979 
06:30	71.3	71.3	71.3	92	68.8	0	2	112	0.00	29.977 
06:35	71.5	71.5	71.5	92	69.0	0	1	112	0.00	29.977 
06:40	71.5	71.5	71.5	92	69.0	0	1	112	0.00	29.977 
06:45	71.6	71.6	71.6	92	69.1	0	1	112	0.00	29.975 
06:50	71.6	71.6	71.6	92	69.1	0	3	112	0.00	29.975 
06:55	71.6	71.6	71.6	92	69.1	0	2	112	0.00	29.975 
07:00	71.8	71.8	71.8	92	69.3	0	2	112	0.00	29.975 
07:05	72.0	72.0	72.0	91	69.2	0	1	112	0.00	29.975 
07:10	72.0	72.0	72.0	91	69.2	0	3	112	0.00	29.975 
07:15	72.1	72.1	72.1	91	69.3	0	1	112	0.00	29.971 
07:20	72.1	72.1	72.1	91	69.3	0	1	112	0.00	29.971 
07:25	72.3	72.3	72.3	90	69.2	0	1	112	0.00	29.971 
07:30	72.3	72.3	72.3	90	69.2	0	1	112	0.00	29.974 
07:35	72.3	72.3	72.3	90	69.2	0	1	158	0.00	29.974 
07:40	72.5	72.5	72.5	89	69.1	0	1	158	0.00	29.974 
07:45	72.5	72.5	72.5	89	69.1	0	0	---	0.00	29.978 
07:50	72.7	72.7	72.7	89	69.3	0	3	90	0.00	29.978 
07:55	72.8	72.8	72.8	89	69.4	0	3	68	0.00	29.978 
08:00	72.8	72.8	72.8	89	69.4	0	2	68	0.00	29.984 
08:05	73.0	73.0	73.0	88	69.2	0	2	68	0.00	29.984 
08:10	73.3	73.3	73.3	88	69.5	0	2	68	0.00	29.984 
08:15	73.3	73.3	73.3	88	69.5	0	1	68	0.00	29.991 
08:20	73.5	73.5	73.5	88	69.7	0	2	68	0.00	29.991 
08:25	73.5	73.5	73.5	87	69.4	0	2	68	0.00	29.991 
08:30	73.9	73.9	73.9	87	69.8	0	1	68	0.00	29.990 
08:35	74.0	74.0	74.0	87	69.9	0	2	68	0.00	29.990 
08:40	74.6	74.6	74.6	86	70.1	0	1	68	0.00	29.990 
08:45	74.9	74.9	74.9	85	70.1	0	3	68	0.00	29.982 
08:50	75.3	75.3	75.5	84	70.1	0	3	68	0.00	29.982 
08:55	75.3	75.3	75.6	83	69.8	1	3	270	0.00	29.982 
09:00	75.4	75.4	75.8	83	69.9	0	2	270	0.00	29.982 
09:05	75.4	75.4	75.8	83	69.9	0	2	270	0.00	29.982 
09:10	75.4	75.4	75.7	84	70.2	0	2	270	0.00	29.982 
09:15	75.8	75.8	76.4	83	70.3	0	2	270	0.00	29.978 
09:20	76.5	76.5	77.7	82	70.6	0	3	135	0.00	29.978 
09:25	77.2	77.2	78.9	81	70.9	1	3	68	0.00	29.978 
09:30	77.2	77.2	78.9	79	70.2	1	3	0	0.00	29.977 
09:35	77.2	77.2	78.9	80	70.5	0	2	22	0.00	29.977 
09:40	76.8	76.8	78.3	79	69.8	1	5	22	0.00	29.977 
09:45	76.5	76.5	77.8	80	69.9	1	3	68	0.00	29.988 
09:50	76.3	76.3	77.4	81	70.0	1	4	68	0.00	29.988 
09:55	76.3	76.3	77.4	81	70.0	1	4	292	0.00	29.988 
10:00	76.5	76.5	77.7	82	70.6	0	2	90	0.00	29.984 
10:05	76.7	76.7	78.0	81	70.4	0	3	270	0.00	29.984 
10:10	76.8	76.8	78.2	81	70.5	0	4	90	0.00	29.984 
10:15	77.0	77.0	78.5	81	70.7	0	2	90	0.00	29.982 
10:20	76.7	76.7	78.1	80	70.0	0	3	90	0.00	29.982 
10:25	76.5	76.5	77.8	80	69.9	1	3	90	0.00	29.982 
10:30	76.1	76.1	77.1	81	69.8	0	1	90	0.00	29.983 
10:35	76.0	76.0	76.9	81	69.7	0	5	180	0.00	29.983 
10:40	76.0	76.0	76.9	81	69.7	0	1	180	0.00	29.983 
10:45	76.1	76.1	77.1	81	69.8	1	4	315	0.00	29.983 
10:50	76.1	76.1	77.1	81	69.8	1	4	248	0.00	29.983 
10:55	76.0	76.0	76.9	81	69.7	0	4	270	0.00	29.983 
11:00	76.0	76.0	76.9	81	69.7	0	4	270	0.00	29.988 
11:05	76.1	76.1	77.1	81	69.8	0	2	270	0.00	29.988 
11:10	76.3	76.3	77.4	81	70.0	1	4	270	0.00	29.988 
11:15	76.5	76.5	77.7	81	70.2	0	3	270	0.00	29.988 
11:20	76.8	76.8	78.2	81	70.5	0	1	270	0.00	29.988 
11:25	77.0	77.0	78.6	80	70.3	0	3	270	0.00	29.988 
11:30	77.0	77.0	78.6	79	70.0	1	5	270	0.00	29.982 
11:35	77.4	77.4	79.3	79	70.4	1	4	292	0.00	29.982 
11:40	77.6	77.6	79.6	79	70.6	1	5	315	0.00	29.982 
11:45	77.9	77.9	80.1	78	70.5	1	3	292	0.00	29.982 
11:50	78.1	78.1	80.4	77	70.3	1	3	292	0.00	29.982 
11:55	78.8	78.8	81.5	76	70.6	1	4	22	0.00	29.982 
12:00	79.4	79.4	82.5	75	70.8	1	3	292	0.00	29.978 
12:05	79.8	79.8	83.0	73	70.4	1	4	270	0.00	29.978 
12:10	79.8	79.8	83.1	74	70.8	1	4	270	0.00	29.978 
12:15	79.8	79.8	83.0	73	70.4	1	3	270	0.00	29.986 
12:20	79.6	79.6	82.7	74	70.6	1	5	45	0.00	29.986 
12:25	79.4	79.4	82.4	74	70.4	0	3	292	0.00	29.986 
12:30	79.4	79.4	82.4	74	70.4	0	2	292	0.00	29.987 
12:35	79.6	79.6	82.8	75	71.0	1	4	22	0.00	29.987 
12:40	80.5	80.5	84.4	74	71.4	1	4	0	0.00	29.987 
12:45	80.9	80.9	84.8	72	71.0	1	4	292	0.00	29.987 
12:50	81.1	81.1	84.8	70	70.4	1	4	292	0.00	29.987 
12:55	80.9	80.9	84.5	70	70.2	1	3	270	0.00	29.987 
13:00	80.9	80.9	84.8	72	71.0	1	6	270	0.00	29.977 
13:05	81.2	81.2	85.2	71	70.9	1	5	270	0.00	29.977 
13:10	81.4	81.4	85.1	69	70.2	1	5	270	0.00	29.977 
13:15	82.0	82.0	86.2	69	70.8	1	4	270	0.00	29.977 
13:20	82.4	82.4	86.7	68	70.8	1	7	270	0.00	29.977 
13:25	82.4	82.4	86.5	67	70.3	1	4	292	0.00	29.977 
13:30	82.2	82.2	86.4	68	70.6	1	4	0	0.00	29.978 
13:35	82.4	82.4	86.3	66	69.9	2	5	270	0.00	29.978 
13:40	82.4	82.4	86.5	67	70.3	2	5	270	0.00	29.978 
13:45	83.0	83.0	87.6	67	70.9	1	2	270	0.00	29.983 
13:50	83.0	83.0	87.3	66	70.4	1	5	270	0.00	29.983 
13:55	83.2	83.2	86.9	63	69.3	2	6	270	0.00	29.983 
14:00	83.4	83.4	87.0	62	69.0	1	4	270	0.00	29.980 
14:05	83.2	83.2	86.9	63	69.3	2	4	270	0.00	29.980 
14:10	83.0	83.0	86.9	64	69.5	1	3	270	0.00	29.980 
14:15	82.8	82.8	86.3	63	68.9	1	5	270	0.00	29.976 
14:20	82.6	82.6	85.9	63	68.7	1	4	270	0.00	29.976 
14:25	82.4	82.4	85.8	64	69.0	1	4	292	0.00	29.976 
14:30	83.2	83.2	86.9	63	69.3	1	4	292	0.00	29.972 
14:35	83.8	83.8	87.5	61	68.9	1	5	292	0.00	29.972 
14:40	84.3	84.3	87.8	59	68.4	1	5	292	0.00	29.972 
14:45	84.7	84.7	88.4	59	68.8	1	4	270	0.00	29.968 
14:50	84.7	84.7	88.1	58	68.3	2	6	270	0.00	29.968 
14:55	85.1	85.1	88.8	58	68.6	1	4	270	0.00	29.968 
15:00	84.9	84.9	88.2	57	67.9	1	4	270	0.00	29.960 
15:05	84.7	84.7	88.1	58	68.3	1	4	270	0.00	29.960 
15:10	84.9	84.9	88.2	57	67.9	1	5	270	0.00	29.960 
15:15	84.7	84.7	87.6	56	67.2	1	4	270	0.00	29.957 
15:20	84.7	84.7	88.7	60	69.2	1	3	270	0.00	29.957 
15:25	84.7	84.7	88.1	58	68.3	1	3	270	0.00	29.957 
15:30	85.1	85.1	88.5	57	68.1	1	4	270	0.00	29.954 
15:35	85.3	85.3	88.5	56	67.8	1	3	270	0.00	29.954 
15:40	85.1	85.1	88.5	57	68.1	1	2	270	0.00	29.954 
15:45	84.7	84.7	88.1	58	68.3	1	4	270	0.00	29.956 
15:50	84.7	84.7	88.4	59	68.8	1	4	90	0.00	29.956 
15:55	84.3	84.3	87.8	59	68.4	1	3	292	0.00	29.956 
16:00	84.1	84.1	87.2	58	67.7	1	3	315	0.00	29.954 
16:05	84.0	84.0	87.0	58	67.6	0	2	315	0.00	29.954 
16:10	84.1	84.1	87.2	58	67.7	0	2	315	0.00	29.954 
16:15	84.5	84.5	88.1	59	68.6	0	3	315	0.00	29.949 
16:20	84.7	84.7	87.9	57	67.7	1	4	292	0.00	29.949 
16:25	84.9	84.9	87.6	55	66.9	1	3	270	0.00	29.949 
16:30	84.7	84.7	87.6	56	67.2	1	4	270	0.00	29.942 
16:35	84.5	84.5	87.3	56	67.0	1	4	270	0.00	29.942 
16:40	84.5	84.5	87.0	55	66.5	2	5	270	0.00	29.942 
16:45	84.7	84.7	87.3	55	66.7	1	3	270	0.00	29.945 
16:50	84.7	84.7	87.9	57	67.7	0	2	248	0.00	29.945 
16:55	84.9	84.9	88.5	58	68.4	1	4	248	0.00	29.945 
17:00	85.5	85.5	89.5	58	69.0	0	3	248	0.00	29.939 
17:05	85.7	85.7	89.2	56	68.2	1	4	248	0.00	29.939 
17:10	85.5	85.5	89.5	58	69.0	0	2	248	0.00	29.939 
17:15	85.5	85.5	89.2	57	68.5	0	3	248	0.00	29.936 
17:20	85.5	85.5	89.5	58	69.0	1	3	248	0.00	29.936 
17:25	85.5	85.5	89.8	59	69.5	1	2	248	0.00	29.936 
17:30	84.9	84.9	88.5	58	68.4	0	2	248	0.00	29.934 
17:35	84.9	84.9	89.1	60	69.4	0	1	248	0.00	29.934 
17:40	85.1	85.1	88.8	58	68.6	1	3	248	0.00	29.934 
17:45	85.3	85.3	89.5	59	69.3	1	3	248	0.00	29.924 
17:50	85.5	85.5	89.8	59	69.5	1	3	248	0.00	29.924 
17:55	85.1	85.1	89.4	60	69.6	0	2	270	0.00	29.924 
18:00	84.9	84.9	89.7	62	70.4	0	2	270	0.00	29.925 
18:05	84.9	84.9	88.8	59	68.9	1	4	270	0.00	29.925 
18:10	84.7	84.7	88.4	59	68.8	1	3	270	0.00	29.925 
18:15	84.3	84.3	88.3	61	69.4	0	2	270	0.00	29.922 
18:20	84.1	84.1	88.0	61	69.2	1	3	270	0.00	29.922 
18:25	84.1	84.1	88.0	61	69.2	1	3	202	0.00	29.922 
18:30	84.1	84.1	88.2	62	69.6	0	1	225	0.00	29.917 
18:35	84.0	84.0	88.1	62	69.5	0	2	202	0.00	29.917 
18:40	83.8	83.8	87.7	62	69.4	0	2	202	0.00	29.917 
18:45	83.6	83.6	87.4	62	69.2	1	5	135	0.00	29.910 
18:50	83.4	83.4	87.3	63	69.5	0	2	112	0.00	29.910 
18:55	83.4	83.4	87.3	63	69.5	0	3	270	0.00	29.910 
19:00	83.4	83.4	87.0	62	69.0	0	3	270	0.00	29.909 
19:05	83.4	83.4	87.0	62	69.0	0	3	270	0.00	29.909 
19:10	83.4	83.4	87.0	62	69.0	0	2	292	0.00	29.909 
19:15	83.4	83.4	87.0	62	69.0	0	2	292	0.00	29.910 
19:20	83.4	83.4	87.3	63	69.5	0	1	292	0.00	29.910 
19:25	83.2	83.2	86.9	63	69.3	0	1	292	0.00	29.910 
19:30	83.0	83.0	86.6	63	69.1	1	3	292	0.00	29.912 
19:35	82.8	82.8	86.5	64	69.3	0	3	292	0.00	29.912 
19:40	82.8	82.8	86.5	64	69.3	0	2	292	0.00	29.912 
19:45	82.8	82.8	86.5	64	69.3	0	2	315	0.00	29.913 
19:50	83.0	83.0	86.9	64	69.5	0	3	315	0.00	29.913 
19:55	83.0	83.0	86.9	64	69.5	1	3	315	0.00	29.913 
20:00	82.8	82.8	86.7	65	69.8	0	3	315	0.00	29.917 
20:05	82.4	82.4	86.1	65	69.4	0	2	315	0.00	29.917 
20:10	82.4	82.4	86.3	66	69.9	0	4	315	0.00	29.917 
20:15	82.4	82.4	86.3	66	69.9	0	2	292	0.00	29.919 
20:20	82.2	82.2	86.1	67	70.1	0	2	338	0.00	29.919 
20:25	82.0	82.0	86.0	68	70.4	0	2	338	0.00	29.919 
20:30	81.6	81.6	85.5	69	70.4	0	3	292	0.00	29.923 
20:35	81.4	81.4	85.1	69	70.2	0	2	292	0.00	29.923 
20:40	81.2	81.2	85.0	70	70.5	0	1	292	0.00	29.923 
20:45	81.1	81.1	85.0	71	70.8	0	1	292	0.00	29.924 
20:50	81.1	81.1	85.0	71	70.8	0	3	292	0.00	29.924 
20:55	81.1	81.1	85.2	72	71.2	0	1	248	0.00	29.924 
21:00	80.9	80.9	85.0	73	71.4	0	2	248	0.00	29.923 
21:05	80.7	80.7	84.7	74	71.6	0	2	248	0.00	29.923 
21:10	80.5	80.5	84.4	74	71.4	0	2	248	0.00	29.923 
21:15	80.3	80.3	84.1	75	71.6	0	1	248	0.00	29.924 
21:20	80.1	80.1	83.8	75	71.4	0	1	248	0.00	29.924 
21:25	79.9	79.9	83.3	74	70.8	0	2	248	0.00	29.924 
21:30	79.8	79.8	83.1	74	70.8	0	1	248	0.00	29.928 
21:35	79.6	79.6	82.7	74	70.6	0	3	248	0.00	29.928 
21:40	79.4	79.4	82.3	73	70.0	1	3	248	0.00	29.928 
21:45	79.2	79.2	82.0	73	69.8	1	4	315	0.00	29.935 
21:50	79.2	79.2	82.0	73	69.8	0	3	315	0.00	29.935 
21:55	79.0	79.0	81.6	72	69.2	0	1	315	0.00	29.935 
22:00	78.8	78.8	81.3	72	69.0	0	1	315	0.00	29.937 
22:05	78.8	78.8	81.3	72	69.0	0	1	315	0.00	29.937 
22:10	78.6	78.6	81.0	72	68.8	0	2	315	0.00	29.937 
22:15	78.5	78.5	80.9	73	69.1	0	1	315	0.00	29.944 
22:20	78.3	78.3	80.6	73	68.9	0	2	315	0.00	29.944 
22:25	78.3	78.3	80.6	74	69.3	0	2	315	0.00	29.944 
22:30	78.1	78.1	80.3	74	69.1	0	0	---	0.00	29.945 
22:35	77.9	77.9	80.0	75	69.3	0	0	---	0.00	29.945 
22:40	77.7	77.7	79.7	76	69.5	0	0	---	0.00	29.945 
22:45	77.6	77.6	79.6	77	69.8	0	0	---	0.00	29.943 
22:50	77.4	77.4	79.3	78	70.0	0	1	315	0.00	29.943 
22:55	77.2	77.2	78.9	79	70.2	0	0	---	0.00	29.943 
23:00	77.0	77.0	78.6	80	70.3	0	2	315	0.00	29.943 
23:05	76.8	76.8	78.2	80	70.1	0	0	---	0.00	29.943 
23:10	76.7	76.7	78.0	81	70.4	0	1	315	0.00	29.943 
23:15	76.7	76.7	78.0	81	70.4	0	0	---	0.00	29.941 
23:20	76.5	76.5	77.7	81	70.2	0	0	---	0.00	29.941 
23:25	76.3	76.3	77.4	81	70.0	0	0	---	0.00	29.941 
23:30	76.3	76.3	77.4	81	70.0	0	0	---	0.00	29.939 
23:35	76.1	76.1	77.0	82	70.2	0	1	315	0.00	29.939 
23:40	76.0	76.0	76.8	82	70.1	0	1	315	0.00	29.939 
23:45	75.8	75.8	76.5	82	69.9	0	0	---	0.00	29.928 
23:50	75.6	75.6	76.1	83	70.1	0	0	---	0.00	29.928 
23:55	75.4	75.4	75.8	83	69.9	0	0	---	0.00	29.928 

CoCoRaHS
IN-AL-39
A2 Web Hosting
Creative Commons License
GoDaddy
search engine by freefind advanced

loaded 2018-11-12 14:47:26 • last modified 2010-11-18 10:43:29
Privacy PolicyDisclaimer
• wx.awcolley.com is powered by PmWiki v.2002016 •
• all content (unless otherwise noted) © 2018 A W Colley